Time;durP1;ratioP1;P1;durP2;ratioP2;P2;SDS_P1;SDS_P2;PMS_P1;PMS_P2;Temp;Humidity;BMP_temperature;BMP_pressure;BME280_temperature;BME280_humidity;BME280_pressure;Samples;Min_cycle;Max_cycle;Signal;HPM_P1;HPM_P2
2022/01/20 00:00:18;;;;;;;9.75;2.25;;;;;;;;;;6226689;22;20016;-90
2022/01/20 00:02:45;;;;;;;18.27;4.07;;;;;;;;;;6226534;22;20425;-89
2022/01/20 00:05:30;;;;;;;7.70;3.42;;;;;;;;;;6252292;22;20098;-89
2022/01/20 00:08:13;;;;;;;13.30;2.65;;;;;;;;;;6228307;22;20015;-90
2022/01/20 00:27:12;;;;;;;7.90;2.60;;;;;;;;;;6251276;22;20023;-91
2022/01/20 00:32:31;;;;;;;5.15;2.35;;;;;;;;;;6251345;22;20027;-90
2022/01/20 00:37:28;;;;;;;8.02;3.08;;;;;;;;;;6251447;22;20012;-89
2022/01/20 00:39:54;;;;;;;11.10;2.30;;;;;;;;;;6225841;22;20026;-90
2022/01/20 00:42:20;;;;;;;11.45;2.38;;;;;;;;;;6225955;22;20011;-90
2022/01/20 00:44:47;;;;;;;11.40;2.50;;;;;;;;;;6225867;22;20015;-91
2022/01/20 00:47:14;;;;;;;9.38;1.98;;;;;;;;;;6226145;22;20023;-90
2022/01/20 00:49:40;;;;;;;9.57;2.63;;;;;;;;;;6226751;22;20018;-91
2022/01/20 00:52:07;;;;;;;6.07;1.73;;;;;;;;;;6228337;22;20026;-90
2022/01/20 00:54:33;;;;;;;4.20;1.70;;;;;;;;;;6252572;22;20007;-90
2022/01/20 00:56:59;;;;;;;6.72;1.95;;;;;;;;;;6227270;22;20337;-90
2022/01/20 00:59:26;;;;;;;18.30;1.55;;;;;;;;;;6227943;22;20456;-91
2022/01/20 01:01:52;;;;;;;9.52;2.15;;;;;;;;;;6226301;22;20020;-91
2022/01/20 01:04:18;;;;;;;9.38;1.88;;;;;;;;;;6226405;22;20015;-91
2022/01/20 01:09:28;;;;;;;;;;;4.80;99.90;;;;;;6252672;22;20019;-90
2022/01/20 01:12:00;;;;;;;5.03;0.90;;;;;;;;;;6252424;22;20346;-90
2022/01/20 01:14:28;;;;;;;4.20;0.80;;;;;;;;;;6251524;22;20314;-90
2022/01/20 01:24:39;;;;;;;5.32;1.90;;;;;;;;;;6251942;22;20015;-90
2022/01/20 01:27:06;;;;;;;7.90;1.23;;;;;;;;;;6225363;22;20016;-88
2022/01/20 01:32:02;;;;;;;6.95;1.75;;;;;;;;;;6250553;22;20016;-88
2022/01/20 01:34:30;;;;;;;16.20;1.73;;;;;;;;;;6224526;22;20069;-89
2022/01/20 01:39:25;;;;;;;7.32;1.80;;;;;;;;;;6250967;22;20011;-91
2022/01/20 01:41:51;;;;;;;6.10;1.42;;;;;;;;;;6225455;22;20023;-90
2022/01/20 01:44:24;;;;;;;6.47;1.70;;;;;;;;;;6250231;22;20015;-90
2022/01/20 01:46:51;;;;;;;5.85;1.65;;;;;;;;;;6225580;22;20102;-90
2022/01/20 01:49:18;;;;;;;5.95;2.65;;;;;;;;;;6250876;22;20023;-90
2022/01/20 01:51:44;;;;;;;6.53;2.63;;;;;;;;;;6225481;22;20019;-90
2022/01/20 01:54:11;;;;;;;11.35;2.45;;;;;;;;;;6225373;22;20091;-89
2022/01/20 01:56:37;;;;;;;3.90;1.67;;;;;;;;;;6224934;22;20354;-89
2022/01/20 01:59:05;;;;;;;8.02;2.30;;;;;;;;;;6225888;22;20034;-89
2022/01/20 02:01:34;;;;;;;11.40;2.67;;;;;;;;;;6225336;22;20095;-89
2022/01/20 02:04:11;;;;;;;9.30;2.88;;;;;;;;;;6225667;22;20015;-90
2022/01/20 02:19:54;;;;;;;2.63;1.38;;;;;;;;;;6251046;22;20106;-90
2022/01/20 02:22:20;;;;;;;7.53;1.73;;;;;;;;;;6250960;22;20027;-93
2022/01/20 02:24:46;;;;;;;8.65;3.10;;;;;;;;;;6225837;22;20008;-90
2022/01/20 02:27:12;;;;;;;6.75;1.73;;;;;;;;;;6225436;22;20073;-92
2022/01/20 02:29:38;;;;;;;18.05;2.55;;;;;;;;;;6226052;22;20468;-90
2022/01/20 02:32:05;;;;;;;27.08;5.95;;;;;;;;;;6225452;22;20020;-88
2022/01/20 02:34:32;;;;;;;9.38;2.70;;;;;;;;;;6250013;22;20352;-88
2022/01/20 02:37:00;;;;;;;13.02;3.42;;;;;;;;;;6250197;22;20094;-89
2022/01/20 02:40:00;;;;;;;18.77;4.57;;;;;;;;;;6250540;22;20012;-88
2022/01/20 02:45:03;;;;;;;16.02;4.22;;;;;;;;;;6250937;22;20015;-89
2022/01/20 02:47:31;;;;;;;19.05;3.67;;;;;;;;;;6251039;22;20073;-87
2022/01/20 02:49:57;;;;;;;17.83;5.47;;;;;;;;;;6226876;22;20069;-87
2022/01/20 02:52:24;;;;;;;16.90;3.88;;;;;;;;;;6252178;22;20012;-88
2022/01/20 02:54:50;;;;;;;21.75;4.60;;;;;;;;;;6252458;22;20023;-87
2022/01/20 02:57:17;;;;;;;19.08;4.43;;;;;;;;;;6253685;22;20012;-87
2022/01/20 02:59:43;;;;;;;18.60;5.10;;;;;;;;;;6252263;22;20016;-87
2022/01/20 03:02:09;;;;;;;16.83;4.15;;;;;;;;;;6252077;22;20027;-87
2022/01/20 03:04:36;;;;;;;21.20;3.70;;;;;;;;;;6226543;22;20016;-87
2022/01/20 03:07:02;;;;;;;18.35;4.35;;;;;;;;;;6226534;22;20065;-87
2022/01/20 03:09:28;;;;;;;12.40;4.05;;;;;;;;;;6252257;22;20018;-86
2022/01/20 03:11:54;;;;;;;13.73;3.38;;;;;;;;;;6226779;22;20019;-87
2022/01/20 03:14:20;;;;;;;13.68;4.40;;;;;;;;;;6226844;22;20480;-86
2022/01/20 03:16:47;;;;;;;14.50;3.08;;;;;;;;;;6252039;22;20027;-87
2022/01/20 03:19:14;;;;;;;15.85;3.15;;;;;;;;;;6226821;22;20043;-87
2022/01/20 03:21:40;;;;;;;13.23;3.33;;;;;;;;;;6226923;22;20475;-87
2022/01/20 03:24:07;;;;;;;18.92;4.60;;;;;;;;;;6226822;22;20095;-87
2022/01/20 03:26:33;;;;;;;16.13;3.22;;;;;;;;;;6226014;22;20019;-87
2022/01/20 03:28:59;;;;;;;21.80;3.67;;;;;;;;;;6226736;22;20356;-87
2022/01/20 03:31:25;;;;;;;19.73;2.35;;;;;;;;;;6251835;22;20054;-87
2022/01/20 03:33:52;;;;;;;9.13;3.08;;;;;;;;;;6226674;22;20012;-87
2022/01/20 03:36:18;;;;;;;11.52;2.38;;;;;;;;;;6228090;22;20046;-87
2022/01/20 03:38:44;;;;;;;14.40;2.28;;;;;;;;;;6226621;22;20015;-87
2022/01/20 03:41:10;;;;;;;8.27;2.83;;;;;;;;;;6227891;22;20026;-87
2022/01/20 03:43:36;;;;;;;19.30;2.72;;;;;;;;;;6226226;22;20016;-87
2022/01/20 03:46:06;;;;;;;8.27;2.35;;;;;;;;;;6251229;22;20090;-87
2022/01/20 03:48:38;;;;;;;8.02;1.90;;;;;;;;;;6251971;22;20094;-86
2022/01/20 03:51:04;;;;;;;11.73;3.50;;;;;;;;;;6226607;22;20095;-87
2022/01/20 03:53:32;;;;;;;17.23;3.00;;;;;;;;;;6226506;22;20444;-86
2022/01/20 03:55:58;;;;;;;14.45;3.20;;;;;;;;;;6251728;22;20058;-86
2022/01/20 03:58:24;;;;;;;8.80;2.67;;;;;;;;;;6226444;22;20038;-86
2022/01/20 04:00:50;;;;;;;16.30;5.70;;;;;;;;;;6251936;22;20034;-87
2022/01/20 04:03:17;;;;;;;9.55;3.30;;;;;;;;;;6220956;23;20454;-88
2022/01/20 04:06:00;;;;;;;19.05;3.13;;;;;;;;;;6220812;23;20434;-87
2022/01/20 04:08:36;;;;;;;8.63;3.08;;;;;;;;;;6221281;23;20066;-86
2022/01/20 04:11:07;;;;;;;8.68;2.60;;;;;;;;;;6221337;23;20050;-87
2022/01/20 04:13:34;;;;;;;9.48;1.95;;;;;;;;;;6220786;23;20039;-87
2022/01/20 04:16:01;;;;;;;6.22;2.40;;;;;;;;;;6221292;23;20016;-86
2022/01/20 04:18:28;;;;;;;6.55;2.03;;;;;;;;;;6221360;23;20062;-87
2022/01/20 04:20:57;;;;;;;8.77;2.88;;;;;;;;;;6246519;23;20016;-87
2022/01/20 04:23:23;;;;;;;6.32;2.55;;;;;;;;;;6246689;23;20342;-86
2022/01/20 04:25:49;;;;;;;11.55;2.15;;;;;;;;;;6221128;23;20020;-87
2022/01/20 04:28:15;;;;;;;12.60;2.25;;;;;;;;;;6246400;23;20016;-87
2022/01/20 04:30:41;;;;;;;27.25;3.03;;;;;;;;;;6246233;23;20012;-87
2022/01/20 04:33:07;;;;;;;14.75;2.65;;;;;;;;;;6220376;23;20069;-87
2022/01/20 04:35:33;;;;;;;10.60;2.38;;;;;;;;;;6221537;23;20016;-88
2022/01/20 04:38:00;;;;;;;14.77;2.95;;;;;;;;;;6221173;23;20016;-87
2022/01/20 04:40:34;;;;;;;8.10;2.90;;;;;;;;;;6246636;23;20020;-87
2022/01/20 04:43:00;;;;;;;14.77;5.25;;;;;;;;;;6220846;23;20099;-88
2022/01/20 04:45:32;;;;;;;14.05;3.30;;;;;;;;;;6220924;23;20019;-87
2022/01/20 04:48:24;;;;;;;11.88;2.13;;;;;;;;;;6220836;23;20020;-87
2022/01/20 04:59:28;;;;;;;7.38;1.23;;;;;;;;;;6072168;23;20476;-87
2022/01/20 05:01:54;;;;;;;5.20;1.48;;;;;;;;;;6048201;23;20101;-87
2022/01/20 05:04:22;;;;;;;7.68;1.90;;;;;;;;;;6047312;23;20468;-87
2022/01/20 05:06:49;;;;;;;5.50;1.67;;;;;;;;;;6048169;23;20026;-87
2022/01/20 05:09:21;;;;;;;7.22;2.42;;;;;;;;;;6048242;23;20018;-87
2022/01/20 05:11:51;;;;;;;5.05;1.40;;;;;;;;;;6072083;23;20093;-87
2022/01/20 05:14:18;;;;;;;9.93;1.98;;;;;;;;;;6071958;23;20025;-87
2022/01/20 05:16:44;;;;;;;6.93;2.00;;;;;;;;;;6047584;23;20457;-87
2022/01/20 05:19:10;;;;;;;24.45;2.42;;;;;;;;;;6048447;23;20018;-87
2022/01/20 05:21:36;;;;;;;8.32;1.88;;;;;;;;;;6048986;23;20025;-87
2022/01/20 05:24:03;;;;;;;7.57;2.75;;;;;;;;;;6062474;23;20018;-87
2022/01/20 05:26:29;;;;;;;7.72;1.88;;;;;;;;;;6105692;23;20028;-86
2022/01/20 05:28:55;;;;;;;11.65;2.03;;;;;;;;;;6217188;23;20323;-87
2022/01/20 05:31:21;;;;;;;13.93;2.53;;;;;;;;;;6217154;23;20016;-87
2022/01/20 05:33:48;;;;;;;9.65;2.63;;;;;;;;;;6215347;23;20062;-87
2022/01/20 05:36:14;;;;;;;8.18;2.08;;;;;;;;;;6215294;23;20020;-87
2022/01/20 05:38:40;;;;;;;8.52;2.38;;;;;;;;;;6215289;23;20064;-87
2022/01/20 05:41:06;;;;;;;12.00;2.80;;;;;;;;;;6215389;23;20020;-86
2022/01/20 05:43:32;;;;;;;12.98;2.90;;;;;;;;;;6215085;23;20035;-87
2022/01/20 05:45:58;;;;;;;11.25;5.10;;;;;;;;;;6215864;23;20022;-87
2022/01/20 05:48:35;;;;;;;15.35;4.60;;;;;;;;;;6215209;23;20021;-87
2022/01/20 05:51:02;;;;;;;9.75;2.95;;;3.20;99.90;;;;;;6215201;23;20012;-87
2022/01/20 05:53:28;;;;;;;13.27;3.88;;;;;;;;;;6212349;23;20016;-87
2022/01/20 05:55:55;;;;;;;5.65;2.47;;;;;;;;;;6213354;23;20446;-87
2022/01/20 05:58:21;;;;;;;8.90;3.45;;;;;;;;;;6214197;23;20019;-86
2022/01/20 06:00:47;;;;;;;22.00;3.25;;;;;;;;;;6214775;23;20020;-87
2022/01/20 06:05:58;;;;;;;8.95;1.75;;;;;;;;;;6245492;23;20059;-86
2022/01/20 06:08:25;;;;;;;12.63;2.47;;;;;;;;;;6244782;23;20066;-87
2022/01/20 06:10:51;;;;;;;8.20;2.65;;;;;;;;;;6218949;23;20104;-87
2022/01/20 06:13:17;;;;;;;10.77;3.28;;;;;;;;;;6219956;23;20073;-86
2022/01/20 06:15:43;;;;;;;9.27;2.90;;;;;;;;;;6219343;23;20044;-86
2022/01/20 06:18:09;;;;;;;16.00;2.63;;;;;;;;;;6218844;23;20074;-86
2022/01/20 06:20:36;;;;;;;6.43;2.75;;;;;;;;;;6219854;23;20026;-86
2022/01/20 06:23:05;;;;;;;5.20;2.08;;;;;;;;;;6221738;23;20020;-87
2022/01/20 06:25:31;;;;;;;8.75;1.98;;;;;;;;;;6223024;23;20414;-87
2022/01/20 06:27:57;;;;;;;2.75;1.75;;;;;;;;;;6221877;23;20472;-87
2022/01/20 06:30:24;;;;;;;13.15;1.63;;;;;;;;;;6221883;23;20461;-87
2022/01/20 06:32:51;;;;;;;7.05;1.77;;;;;;;;;;6221557;23;20040;-87
2022/01/20 06:35:17;;;;;;;9.23;2.42;;;;;;;;;;6247100;23;20458;-87
2022/01/20 06:37:43;;;;;;;10.82;3.03;;;;;;;;;;6221931;23;20012;-87
2022/01/20 06:40:10;;;;;;;7.03;2.22;;;;;;;;;;6247336;23;20465;-87
2022/01/20 06:42:36;;;;;;;8.75;2.28;;;;;;;;;;6221941;23;20016;-89
2022/01/20 06:45:07;;;;;;;8.18;2.17;;;;;;;;;;6222735;23;20016;-88
2022/01/20 06:47:33;;;;;;;10.65;2.15;;;;;;;;;;6247031;23;20039;-89
2022/01/20 06:50:00;;;;;;;21.83;3.28;;;;;;;;;;6247417;23;20051;-88
2022/01/20 06:52:26;;;;;;;12.77;2.92;;;;;;;;;;6221641;23;20052;-89
2022/01/20 06:54:52;;;;;;;5.22;2.22;;;;;;;;;;6222092;23;20442;-89
2022/01/20 06:57:18;;;;;;;16.38;3.67;;;;;;;;;;6221464;23;20016;-90
2022/01/20 06:59:44;;;;;;;8.48;2.78;;;;;;;;;;6246736;23;20043;-88
2022/01/20 07:02:10;;;;;;;9.85;1.73;;;;;;;;;;6221765;23;20046;-88
2022/01/20 07:04:38;;;;;;;14.63;2.55;;;;;;;;;;6222055;23;20019;-87
2022/01/20 07:07:04;;;;;;;12.90;4.15;;;;;;;;;;6221433;23;20027;-88
2022/01/20 07:09:31;;;;;;;9.38;3.20;;;;;;;;;;6222127;23;20278;-87
2022/01/20 07:11:57;;;;;;;18.83;3.10;;;;;;;;;;6246900;23;20338;-89
2022/01/20 07:14:23;;;;;;;19.98;2.83;;;;;;;;;;6220312;23;20017;-87
2022/01/20 07:16:49;;;;;;;15.88;2.90;;;;;;;;;;6220922;23;20020;-87
2022/01/20 07:19:16;;;;;;;6.03;2.50;;;;;;;;;;6246134;23;20012;-87
2022/01/20 07:21:43;;;;;;;13.45;3.92;;;;;;;;;;6246176;23;20016;-87
2022/01/20 07:24:09;;;;;;;9.50;3.35;;;;;;;;;;6220819;23;20051;-86
2022/01/20 07:26:35;;;;;;;18.38;3.88;;;;;;;;;;6220702;23;20012;-87
2022/01/20 07:29:01;;;;;;;15.68;3.25;;;;;;;;;;6246253;23;20020;-86
2022/01/20 07:31:27;;;;;;;13.07;2.63;;;;;;;;;;6220476;23;20018;-87
2022/01/20 07:33:53;;;;;;;9.10;2.33;;;;;;;;;;6245491;23;20016;-87
2022/01/20 07:36:19;;;;;;;12.23;2.53;;;;;;;;;;6220565;23;20051;-86
2022/01/20 07:38:45;;;;;;;10.95;2.85;;;;;;;;;;6246204;23;20127;-86
2022/01/20 07:41:11;;;;;;;12.82;3.25;;;;;;;;;;6246833;23;20461;-85
2022/01/20 07:43:38;;;;;;;8.75;2.28;;;;;;;;;;6220757;23;20125;-87
2022/01/20 07:46:04;;;;;;;16.15;2.40;;;;;;;;;;6246484;23;20020;-87
2022/01/20 07:48:30;;;;;;;7.32;3.25;;;;;;;;;;6246663;23;20023;-87
2022/01/20 07:50:56;;;;;;;9.82;2.20;;;;;;;;;;6220617;23;20016;-87
2022/01/20 07:53:22;;;;;;;7.55;2.05;;;;;;;;;;6245530;23;20091;-87
2022/01/20 07:55:50;;;;;;;10.95;1.95;;;;;;;;;;6221231;23;20016;-87
2022/01/20 07:58:16;;;;;;;5.82;2.70;;;;;;;;;;6245914;23;20024;-88
2022/01/20 08:00:42;;;;;;;8.38;1.75;;;;;;;;;;6246792;23;20017;-87
2022/01/20 08:03:08;;;;;;;5.38;2.40;;;;;;;;;;6245797;22;20058;-87
2022/01/20 08:05:34;;;;;;;15.50;2.63;;;;;;;;;;6222483;23;20027;-87
2022/01/20 08:08:00;;;;;;;6.55;2.65;;;;;;;;;;6221737;23;20026;-87
2022/01/20 08:10:27;;;;;;;3.58;1.70;;;;;;;;;;6222624;23;20027;-88
2022/01/20 08:12:53;;;;;;;10.40;2.78;;;;;;;;;;6224016;23;20027;-89
2022/01/20 08:15:20;;;;;;;11.43;2.22;;;;;;;;;;6222819;23;20016;-89
2022/01/20 08:17:47;;;;;;;9.38;3.15;;;;;;;;;;6223338;23;20016;-88
2022/01/20 08:20:13;;;;;;;11.15;2.70;;;;;;;;;;6224056;23;20442;-89
2022/01/20 08:22:40;;;;;;;9.15;2.40;;;;;;;;;;6223235;23;20099;-89
2022/01/20 08:25:09;;;;;;;17.83;3.17;;;;;;;;;;6224036;23;20024;-91
2022/01/20 08:27:45;;;;;;;16.88;2.13;;;;;;;;;;6249822;23;20338;-90
2022/01/20 08:30:16;;;;;;;5.88;1.83;;;;;;;;;;6227305;23;20016;-90
2022/01/20 08:32:49;;;;;;;7.97;2.08;;;;;;;;;;6249671;23;20027;-90
2022/01/20 08:35:15;;;;;;;11.10;2.47;;;;;;;;;;6248191;23;20015;-89
2022/01/20 08:37:44;;;;;;;7.38;2.05;;;;;;;;;;6222223;23;20083;-91
2022/01/20 08:40:14;;;;;;;7.88;2.28;;;;;;;;;;6221030;23;20016;-90
2022/01/20 08:42:41;;;;;;;13.93;3.35;;;;;;;;;;6220794;23;20047;-89
2022/01/20 08:45:14;;;;;;;13.68;2.33;;;;;;;;;;6222079;23;20074;-89
2022/01/20 08:47:42;;;;;;;14.10;3.45;;;;;;;;;;6246695;23;20020;-89
2022/01/20 08:50:08;;;;;;;19.27;3.50;;;;;;;;;;6225243;23;20046;-90
2022/01/20 08:52:35;;;;;;;30.25;4.32;;;;;;;;;;6225310;23;20035;-89
2022/01/20 08:55:01;;;;;;;20.60;3.03;;;;;;;;;;6225763;23;20012;-89
2022/01/20 08:57:28;;;;;;;14.55;3.22;;;;;;;;;;6224174;23;20327;-88
2022/01/20 08:59:55;;;;;;;10.13;2.90;;;;;;;;;;6224170;23;20069;-87
2022/01/20 09:02:21;;;;;;;17.13;3.42;;;;;;;;;;6250739;22;20017;-87
2022/01/20 09:04:48;;;;;;;9.82;2.88;;;;;;;;;;6223711;23;20024;-88
2022/01/20 09:07:14;;;;;;;14.80;2.85;;;;;;;;;;6223571;23;20016;-88
2022/01/20 09:09:42;;;;;;;12.45;2.60;;;;;;;;;;6224310;23;20018;-88
2022/01/20 09:32:56;;;;;;;;;;;;;;;;;;;;;
2022/01/20 09:35:54;;;;;;;11.85;3.97;;;;;;;;;;6137152;23;20018;-91
2022/01/20 09:48:20;;;;;;;9.57;2.60;;;;;;;;;;6072939;23;20031;-94
2022/01/20 10:07:13;;;;;;;4.80;2.67;;;;;;;;;;6258752;22;20024;-90
2022/01/20 10:09:52;;;;;;;8.88;2.03;;;;;;;;;;6227379;23;20095;-92
2022/01/20 10:12:19;;;;;;;2.42;1.30;;;;;;;;;;6251904;22;20477;-90
2022/01/20 10:14:48;;;;;;;6.72;2.55;;;;;;;;;;6280646;22;20098;-89
2022/01/20 10:17:23;;;;;;;10.65;2.00;;;;;;;;;;6254865;22;20024;-89
2022/01/20 10:19:53;;;;;;;3.65;1.38;;;;;;;;;;6259970;22;20030;-91
2022/01/20 10:22:25;;;;;;;10.13;2.85;;;;;;;;;;6260487;22;20197;-88
2022/01/20 10:25:02;;;;;;;14.63;2.70;;;;;;;;;;6269360;22;20043;-89
2022/01/20 10:36:54;;;;;;;7.47;2.63;;;3.50;99.90;;;;;;6245343;22;20053;31
2022/01/20 10:39:27;;;;;;;15.07;3.45;;;;;;;;;;6204355;22;20034;-89
2022/01/20 10:41:59;;;;;;;12.20;2.80;;;;;;;;;;6229608;22;20108;-88
2022/01/20 10:44:25;;;;;;;15.02;2.80;;;;;;;;;;6249583;22;20030;-88
2022/01/20 10:46:58;;;;;;;7.15;2.45;;;;;;;;;;6257514;22;20027;-87
2022/01/20 11:01:35;;;;;;;9.48;3.45;;;;;;;;;;6280766;22;20019;-90
2022/01/20 11:04:34;;;;;;;7.53;2.10;;;;;;;;;;6239309;22;20028;-91
2022/01/20 11:07:20;;;;;;;7.47;1.08;;;;;;;;;;6165625;23;20480;-92
2022/01/20 11:09:55;;;;;;;3.75;1.10;;;;;;;;;;6140326;23;20320;-88
2022/01/20 11:12:22;;;;;;;2.92;2.17;;;;;;;;;;6140207;23;20128;-89
2022/01/20 11:14:54;;;;;;;3.78;1.65;;;;;;;;;;6164103;23;20013;-87
2022/01/20 11:17:20;;;;;;;6.00;1.80;;;;;;;;;;6163571;23;20564;-88
2022/01/20 11:19:48;;;;;;;7.60;2.30;;;;;;;;;;6140749;23;20017;-89
2022/01/20 11:22:14;;;;;;;12.52;2.15;;;;;;;;;;6139962;23;20028;-89
2022/01/20 11:24:44;;;;;;;8.15;2.05;;;;;;;;;;6140796;23;20020;-92
2022/01/20 11:27:12;;;;;;;11.30;2.35;;;;;;;;;;6146621;23;20100;-90
2022/01/20 11:29:39;;;;;;;13.18;3.22;;;;;;;;;;6144736;23;20017;-92
2022/01/20 11:32:18;;;;;;;7.78;1.63;;;;;;;;;;6143356;23;20021;-93
2022/01/20 11:37:59;;;;;;;12.20;2.78;;;;;;;;;;6166291;23;20027;-90
2022/01/20 11:40:26;;;;;;;6.07;1.92;;;;;;;;;;6256589;22;20093;-92
2022/01/20 11:43:02;;;;;;;14.10;1.95;;;;;;;;;;6234465;22;20020;-90
2022/01/20 11:45:34;;;;;;;6.40;1.88;;;;;;;;;;6257323;22;20020;-88
2022/01/20 11:48:30;;;;;;;8.50;2.38;;;;;;;;;;6257513;22;20055;-90
2022/01/20 11:51:22;;;;;;;4.90;1.80;;;;;;;;;;6141059;23;20017;-90
2022/01/20 11:53:59;;;;;;;3.10;1.90;;;;;;;;;;6137420;23;20028;-88
2022/01/20 11:56:29;;;;;;;7.70;2.03;;;;;;;;;;6141125;23;20017;-90
2022/01/20 11:58:56;;;;;;;7.75;2.45;;;;;;;;;;6141328;23;20021;-88
2022/01/20 12:01:22;;;;;;;11.90;3.50;;;;;;;;;;6141274;23;20017;-88
2022/01/20 12:03:56;;;;;;;6.68;2.58;;;;;;;;;;6141200;23;20020;-90
2022/01/20 12:08:55;;;;;;;7.82;2.53;;;;;;;;;;6297309;22;20023;-88
2022/01/20 12:11:22;;;;;;;12.63;2.90;;;;;;;;;;6286541;22;20054;-89
2022/01/20 12:13:49;;;;;;;9.70;2.20;;;;;;;;;;6286477;22;20011;-90
2022/01/20 12:18:50;;;;;;;6.80;3.05;;;;;;;;;;6281385;22;20174;-91
2022/01/20 12:21:16;;;;;;;4.25;1.85;;;;;;;;;;6256246;22;20067;-88
2022/01/20 12:23:43;;;;;;;6.10;2.10;;;;;;;;;;6256920;22;20083;-89
2022/01/20 12:26:09;;;;;;;11.75;2.55;;;;;;;;;;6255126;22;20063;-88
2022/01/20 12:28:36;;;;;;;6.82;2.08;;;;;;;;;;6253130;22;20098;-90
2022/01/20 12:31:04;;;;;;;11.75;2.35;;;;;;;;;;6255704;22;20016;-92
2022/01/20 12:33:35;;;;;;;9.18;2.55;;;;;;;;;;6254505;22;20019;-90
2022/01/20 12:36:04;;;;;;;12.35;3.65;;;;;;;;;;6236643;22;20499;-89
2022/01/20 12:38:33;;;;;;;20.67;3.28;;;;;;;;;;6230909;22;20157;-94
2022/01/20 12:41:04;;;;;;;12.95;3.17;;;;;;;;;;6227186;22;20088;-90
2022/01/20 12:43:37;;;;;;;11.95;1.90;;;;;;;;;;6227846;22;20012;-89
2022/01/20 12:46:03;;;;;;;16.05;4.57;;;;;;;;;;6244554;22;20026;-89
2022/01/20 12:48:29;;;;;;;8.18;2.22;;;;;;;;;;6248384;22;20027;-93
2022/01/20 12:51:02;;;;;;;5.65;1.58;;;;;;;;;;6229995;22;20103;-91
2022/01/20 12:53:32;;;;;;;11.98;2.30;;;;;;;;;;6222465;23;20043;-89
2022/01/20 12:55:59;;;;;;;5.53;1.85;;;;;;;;;;6224122;23;20481;-93
2022/01/20 12:58:25;;;;;;;10.45;2.47;;;;;;;;;;6224040;23;20012;-89
2022/01/20 13:01:01;;;;;;;7.85;2.65;;;;;;;;;;6197110;23;20020;-90
2022/01/20 13:03:38;;;;;;;8.85;1.85;;;;;;;;;;6225208;22;20027;-87
2022/01/20 13:06:05;;;;;;;7.90;1.27;;;;;;;;;;6227224;22;20097;-88
2022/01/20 13:08:36;;;;;;;3.05;1.20;;;;;;;;;;6226943;22;20020;-88
2022/01/20 13:11:08;;;;;;;4.60;1.48;;;;;;;;;;6225587;22;20011;-87
2022/01/20 13:13:34;;;;;;;8.75;2.40;;;;;;;;;;6225170;22;20409;-88
2022/01/20 13:16:13;;;;;;;7.28;3.08;;;;;;;;;;6225323;22;20367;-87
2022/01/20 13:18:39;;;;;;;14.48;3.75;;;;;;;;;;6225870;22;20050;-86
2022/01/20 13:21:07;;;;;;;17.58;2.08;;;;;;;;;;6281476;22;20475;-90
2022/01/20 13:23:55;;;;;;;13.32;2.75;;;;;;;;;;6254995;22;20015;-90
2022/01/20 13:26:22;;;;;;;8.88;2.63;;;;;;;;;;6280087;22;20058;-90
2022/01/20 13:29:01;;;;;;;11.52;2.00;;;;;;;;;;6283448;22;20019;-92
2022/01/20 13:31:28;;;;;;;7.95;2.10;;;;;;;;;;6283053;22;20437;-93
2022/01/20 13:33:54;;;;;;;14.18;3.05;;;;;;;;;;6285283;22;20022;-91
2022/01/20 13:36:47;;;;;;;4.10;2.03;;;;;;;;;;6286291;22;20054;-91
2022/01/20 13:39:17;;;;;;;6.88;2.10;;;;;;;;;;6285506;22;20012;-90
2022/01/20 13:41:45;;;;;;;11.15;2.35;;;;;;;;;;6284613;22;20141;-88
2022/01/20 13:47:13;;;;;;;11.10;2.38;;;;;;;;;;6273571;22;20028;-93
2022/01/20 13:49:56;;;;;;;5.80;1.98;;;;;;;;;;6256629;22;20026;-91
2022/01/20 13:52:53;;;;;;;13.98;3.42;;;;;;;;;;6280627;22;20024;-91
2022/01/20 13:58:29;;;;;;;5.82;1.63;;;;;;;;;;6272228;22;20406;-89
2022/01/20 14:00:55;;;;;;;10.02;2.22;;;;;;;;;;6221439;23;20326;-88
2022/01/20 14:03:22;;;;;;;3.70;1.92;;;;;;;;;;6219749;23;20448;-90
2022/01/20 14:05:49;;;;;;;3.42;1.95;;;;;;;;;;6220503;23;20023;-89
2022/01/20 14:08:16;;;;;;;3.83;1.60;;;;;;;;;;6220071;23;20462;-90
2022/01/20 14:10:42;;;;;;;10.93;2.25;;;;;;;;;;6221721;23;20066;-93
2022/01/20 14:13:08;;;;;;;4.35;1.90;;;;;;;;;;6217932;23;20489;-94
2022/01/20 14:15:34;;;;;;;9.15;2.63;;;;;;;;;;6216602;23;20042;-88
2022/01/20 14:18:01;;;;;;;12.45;2.28;;;;;;;;;;6217999;23;20016;-92
2022/01/20 14:20:28;;;;;;;11.23;2.50;;;;;;;;;;6217228;23;20111;-91
2022/01/20 14:23:00;;;;;;;14.27;2.55;;;;;;;;;;6217197;23;20501;-91
2022/01/20 14:25:26;;;;;;;9.43;2.13;;;;;;;;;;6217510;23;20020;-93
2022/01/20 14:27:53;;;;;;;12.25;3.03;;;;;;;;;;6215525;23;20021;-90
2022/01/20 14:30:19;;;;;;;8.70;2.90;;;;;;;;;;6216408;23;20055;-90
2022/01/20 14:32:45;;;;;;;9.95;2.85;;;;;;;;;;6219168;23;20016;-88
2022/01/20 14:35:12;;;;;;;10.05;2.13;;;;;;;;;;6215963;23;20122;-88
2022/01/20 14:37:38;;;;;;;12.43;2.70;;;;;;;;;;6239510;23;20016;-89
2022/01/20 14:40:14;;;;;;;9.73;3.17;;;;;;;;;;6217110;23;20335;-94
2022/01/20 14:42:41;;;;;;;7.07;2.45;;;;;;;;;;6266814;22;20019;-94
2022/01/20 14:45:08;;;;;;;9.88;2.90;;;;;;;;;;6252563;22;20016;-89
2022/01/20 14:47:34;;;;;;;12.13;2.22;;;;;;;;;;6244500;23;20076;-90
2022/01/20 14:50:01;;;;;;;8.02;1.88;;;;;;;;;;6218039;23;20150;-87
2022/01/20 14:52:27;;;;;;;9.43;3.13;;;;;;;;;;6217304;23;20020;-87
2022/01/20 14:54:54;;;;;;;8.18;2.20;;;;;;;;;;6221533;23;20099;-89
2022/01/20 14:57:21;;;;;;;9.40;2.00;;;;;;;;;;6221352;23;20024;-91
2022/01/20 14:59:47;;;;;;;11.38;3.70;;;;;;;;;;6198691;23;20044;-89
2022/01/20 15:02:14;;;;;;;11.88;3.75;;;;;;;;;;6191108;23;20524;-89
2022/01/20 15:04:40;;;;;;;6.55;3.00;;;;;;;;;;6191035;23;20369;-89
2022/01/20 15:07:06;;;;;;;20.27;5.38;;;;;;;;;;6191211;23;20023;-93
2022/01/20 15:09:32;;;;;;;19.98;4.72;;;;;;;;;;6191154;23;20393;-89
2022/01/20 15:11:59;;;;;;;12.02;2.92;;;;;;;;;;6190658;23;20064;-91
2022/01/20 15:14:25;;;;;;;14.00;3.17;;;;;;;;;;6190035;23;20016;-89
2022/01/20 15:16:51;;;;;;;9.02;2.20;;;;;;;;;;6191806;23;20070;-91
2022/01/20 15:19:17;;;;;;;9.85;2.72;;;;;;;;;;6191374;23;20099;-90
2022/01/20 15:21:44;;;;;;;11.63;3.17;;;;;;;;;;6191053;23;20020;-90
2022/01/20 15:24:13;;;;;;;13.80;2.83;;;;;;;;;;6193413;23;20016;-93
2022/01/20 15:26:41;;;;;;;13.45;3.00;;;;;;;;;;6193569;23;20079;-93
2022/01/20 15:29:07;;;;;;;17.27;2.35;;;;;;;;;;6216992;23;20048;-93
2022/01/20 15:31:36;;;;;;;11.82;2.75;;;;;;;;;;6192290;23;20024;-87
2022/01/20 15:34:11;;;;;;;14.20;2.65;;;;;;;;;;6215765;23;20023;-88
2022/01/20 15:36:37;;;;;;;13.52;3.42;;;;;;;;;;6190720;23;20122;-88
2022/01/20 15:39:05;;;;;;;15.38;2.45;;;;;;;;;;6221818;23;20059;-96
2022/01/20 15:41:31;;;;;;;11.68;3.90;;;;;;;;;;6196125;23;20101;-91
2022/01/20 15:43:57;;;;;;;11.40;3.35;;;;;;;;;;6196429;23;20508;-92
2022/01/20 15:46:23;;;;;;;15.40;4.00;;;;;;;;;;6192186;23;20047;-89
2022/01/20 15:48:49;;;;;;;15.32;3.00;;;;;;;;;;6191563;23;20013;-89
2022/01/20 15:51:16;;;;;;;13.10;3.55;;;;;;;;;;6191435;23;20028;-88
2022/01/20 15:53:42;;;;;;;12.75;2.80;;;;;;;;;;6190844;23;20393;-88
2022/01/20 15:56:08;;;;;;;9.13;3.55;;;;;;;;;;6217236;23;20017;-88
2022/01/20 15:58:34;;;;;;;6.00;2.00;;;;;;;;;;6191770;23;20016;-94
2022/01/20 16:01:00;;;;;;;15.25;3.13;;;;;;;;;;6193000;23;20431;-89
2022/01/20 16:03:26;;;;;;;8.30;2.25;;;;;;;;;;6191513;23;20012;-89
2022/01/20 16:05:52;;;;;;;7.35;2.13;;;;;;;;;;6192050;23;20022;-94
2022/01/20 16:08:18;;;;;;;4.78;2.40;;;;;;;;;;6192726;23;20021;-89
2022/01/20 16:10:45;;;;;;;10.30;2.63;;;;;;;;;;6218823;23;20327;-89
2022/01/20 16:13:11;;;;;;;10.50;3.15;;;;;;;;;;6191564;23;20021;-90
2022/01/20 16:15:38;;;;;;;11.80;3.28;;;;;;;;;;6191383;23;20052;-87
2022/01/20 16:18:05;;;;;;;6.15;2.47;;;;;;;;;;6192118;23;20023;-87
2022/01/20 16:20:32;;;;;;;21.58;3.25;;;;;;;;;;6217446;23;20063;-90
2022/01/20 16:22:58;;;;;;;14.32;4.03;;;;;;;;;;6216359;23;20067;-89
2022/01/20 16:25:24;;;;;;;14.32;2.70;;;;;;;;;;6216221;23;20099;-89
2022/01/20 16:27:50;;;;;;;15.13;3.10;;;;;;;;;;6191331;23;20346;-89
2022/01/20 16:30:16;;;;;;;11.55;3.33;;;;;;;;;;6190648;23;20013;-89
2022/01/20 16:32:43;;;;;;;25.75;3.65;;;;;;;;;;6216322;23;20016;-87
2022/01/20 16:35:09;;;;;;;9.50;2.10;;;;;;;;;;6216402;23;20021;-87
2022/01/20 16:37:35;;;;;;;15.45;3.20;;;;;;;;;;6218274;23;20021;-91
2022/01/20 16:40:01;;;;;;;16.65;3.15;;;;;;;;;;6220174;23;20052;-88
2022/01/20 16:42:27;;;;;;;9.63;2.65;;;;;;;;;;6218137;23;20021;-90
2022/01/20 16:44:54;;;;;;;10.98;2.35;;;;;;;;;;6193093;23;20023;-88
2022/01/20 16:47:21;;;;;;;7.72;2.97;;;;;;;;;;6193619;23;20366;-88
2022/01/20 16:49:48;;;;;;;7.90;1.55;;;;;;;;;;6220443;23;20454;-87
2022/01/20 16:52:14;;;;;;;8.38;1.67;;;;;;;;;;6221081;23;20024;-88
2022/01/20 16:54:40;;;;;;;1.55;1.40;;;;;;;;;;6196045;23;20023;-88
2022/01/20 16:57:06;;;;;;;5.28;1.17;;;;;;;;;;6196156;23;20465;-91
2022/01/20 16:59:32;;;;;;;7.90;1.77;;;;;;;;;;6196727;23;20049;-90
2022/01/20 17:01:58;;;;;;;7.15;1.88;;;;;;;;;;6196602;23;20039;-89
2022/01/20 17:04:25;;;;;;;6.38;1.33;;;;;;;;;;6196102;23;20023;-88
2022/01/20 17:06:51;;;;;;;9.45;1.63;;;;;;;;;;6220395;23;20020;-88
2022/01/20 17:09:17;;;;;;;21.80;4.72;;;;;;;;;;6220375;23;20519;-87